Time;durP1;ratioP1;P1;durP2;ratioP2;P2;SDS_P1;SDS_P2;PMS_P1;PMS_P2;Temp;Humidity;BMP_temperature;BMP_pressure;BME280_temperature;BME280_humidity;BME280_pressure;Samples;Min_cycle;Max_cycle;Signal;HPM_P1;HPM_P2
2022/08/08 00:00:16;;;;;;;2.92;1.77;;;;;;;16.88;52.34;101823.22;5101863;27;20095;-71
2022/08/08 00:02:53;;;;;;;3.70;2.00;;;;;;;16.95;52.64;101813.94;5086725;27;20048;-71
2022/08/08 00:05:28;;;;;;;3.55;1.80;;;;;;;16.81;52.90;101815.72;5074222;28;20113;-71
2022/08/08 00:08:04;;;;;;;4.63;2.10;;;;;;;16.98;52.23;101815.53;5073142;28;20491;-71
2022/08/08 00:10:38;;;;;;;4.38;2.10;;;;;;;16.98;53.41;101816.41;5083178;27;20044;-71
2022/08/08 00:13:13;;;;;;;2.70;1.80;;;;;;;16.94;52.68;101814.03;5078020;27;20040;-71
2022/08/08 00:15:47;;;;;;;2.80;2.20;;;;;;;16.84;53.71;101813.75;5077208;28;20051;-71
2022/08/08 00:18:22;;;;;;;3.97;2.30;;;;;;;16.92;53.90;101810.63;5068173;28;20520;-71
2022/08/08 00:20:52;;;;;;;5.28;2.28;;;;;;;17.00;54.11;101816.28;5080487;28;20223;-71
2022/08/08 00:23:29;;;;;;;5.05;2.10;;;;;;;16.74;54.40;101814.41;5085086;27;20075;-72
2022/08/08 00:25:58;;;;;;;3.22;2.40;;;;;;;16.87;54.06;101805.59;5082039;28;20070;-71
2022/08/08 00:28:30;;;;;;;3.33;2.20;;;;;;;17.01;54.57;101813.56;5076896;28;20075;-71
2022/08/08 00:31:00;;;;;;;5.47;2.20;;;;;;;16.86;54.54;101809.19;5091795;28;20059;-71
2022/08/08 00:33:32;;;;;;;2.67;1.90;;;;;;;17.03;54.47;101816.13;5074965;28;20122;-71
2022/08/08 00:36:06;;;;;;;3.77;2.20;;;;;;;16.90;55.64;101805.41;5084811;28;20101;-71
2022/08/08 00:38:42;;;;;;;3.22;2.17;;;;;;;16.93;55.31;101810.50;5083384;28;20044;-71
2022/08/08 00:41:46;;;;;;;3.38;2.20;;;;;;;16.79;55.94;101813.16;5084314;28;20086;-71
2022/08/08 00:44:40;;;;;;;3.20;2.30;;;;;;;16.79;56.06;101815.81;5084446;28;20412;-71
2022/08/08 00:47:49;;;;;;;4.57;2.47;;;;;;;16.87;55.46;101820.63;5058151;28;20075;-71
2022/08/08 00:50:56;;;;;;;4.13;2.65;;;;;;;16.80;56.36;101817.53;5066639;28;20040;-72
2022/08/08 00:53:36;;;;;;;3.67;2.63;;;;;;;16.89;56.41;101814.28;5084160;28;20048;-72
2022/08/08 00:57:02;;;;;;;5.60;2.83;;;;;;;16.64;57.12;101823.81;5089407;28;20501;-71
2022/08/08 01:00:01;;;;;;;5.80;2.80;;;;;;;16.75;57.07;101821.38;5085094;27;20040;-71
2022/08/08 01:02:57;;;;;;;4.35;2.70;;;;;;;16.57;56.87;101822.47;5072385;27;20048;-71
2022/08/08 01:06:04;;;;;;;5.50;3.00;;;;;;;16.70;57.12;101826.13;5059458;28;20049;-73
2022/08/08 01:09:11;;;;;;;5.95;2.92;;;;;;;16.57;57.86;101822.47;5061329;28;20101;-71
2022/08/08 01:12:12;;;;;;;6.25;2.95;;;;;;;16.44;58.52;101820.50;5060069;28;20044;-71
2022/08/08 01:15:04;;;;;;;6.25;2.60;;;;;;;16.53;57.78;101819.97;5092722;27;20036;-71
2022/08/08 01:18:00;;;;;;;5.22;3.03;;;;;;;16.65;57.35;101818.44;5084028;28;20081;-71
2022/08/08 01:20:38;;;;;;;5.40;2.67;;;;;;;16.65;57.64;101809.63;5065896;28;20559;-71
2022/08/08 01:23:34;;;;;;;4.22;2.53;;;;;;;16.44;58.93;101823.16;5108747;27;20048;-71
2022/08/08 01:26:19;;;;;;;6.00;3.10;;;;;;;16.01;60.27;101823.94;5086820;28;20078;-71
2022/08/08 01:29:05;;;;;;;5.55;2.75;;;;;;;15.99;60.75;101813.47;5083587;28;20048;-71
2022/08/08 01:32:00;;;;;;;4.80;2.78;;;;;;;16.34;59.46;101821.16;5071451;28;20118;-71
2022/08/08 01:34:57;;;;;;;3.50;2.72;;;;;;;16.44;59.32;101817.88;5064320;28;20552;-71
2022/08/08 01:38:01;;;;;;;5.22;3.00;;;;;;;16.29;60.03;101817.94;5066017;28;20053;-71
2022/08/08 01:40:33;;;;;;;6.47;2.88;;;;;;;16.12;60.31;101813.59;5051050;28;20079;-71
2022/08/08 01:43:09;;;;;;;7.18;2.92;;;;;;;16.33;59.29;101815.00;5065190;28;20094;-72
2022/08/08 01:45:48;;;;;;;5.40;2.65;;;;;;;16.47;58.53;101817.72;5079878;27;20053;-71
2022/08/08 01:48:22;;;;;;;5.40;2.80;;;;;;;16.48;58.75;101815.91;5082603;28;20093;-71
2022/08/08 01:51:05;;;;;;;4.65;2.75;;;;;;;16.19;60.34;101814.97;5084669;27;20097;-72
2022/08/08 01:53:45;;;;;;;6.13;2.70;;;;;;;16.17;59.73;101813.34;5087004;27;20052;-71
2022/08/08 01:56:24;;;;;;;4.85;2.60;;;;;;;16.22;59.59;101812.13;5087173;28;20043;-71
2022/08/08 01:59:08;;;;;;;9.30;4.13;;;;;;;16.21;59.72;101814.88;5085503;28;20533;-71
2022/08/08 02:01:53;;;;;;;4.30;2.92;;;;;;;16.23;60.00;101815.63;5083383;27;20044;-71
2022/08/08 02:04:30;;;;;;;3.90;2.45;;;;;;;16.27;59.53;101809.22;5069912;28;20101;-72
2022/08/08 02:07:03;;;;;;;5.95;2.95;;;;;;;16.15;59.70;101810.78;5075691;28;20105;-71
2022/08/08 02:09:44;;;;;;;6.15;3.30;;;;;;;16.31;58.96;101813.38;5072794;27;20105;-71
2022/08/08 02:12:23;;;;;;;9.35;3.03;;;;;;;16.22;58.87;101809.47;5085768;28;20735;-71
2022/08/08 02:14:55;;;;;;;5.53;3.38;;;;;;;16.18;59.61;101810.63;5067596;28;20101;-71
2022/08/08 02:17:26;;;;;;;5.57;2.83;;;;;;;16.25;59.49;101816.41;5073803;28;20078;-71
2022/08/08 02:19:56;;;;;;;8.40;3.00;;;;;;;16.06;60.52;101806.03;5085697;28;20160;-71
2022/08/08 02:22:32;;;;;;;5.15;2.80;;;;;;;15.99;60.76;101809.97;5085596;28;20101;-71
2022/08/08 02:25:09;;;;;;;5.80;2.95;;;;;;;16.14;60.29;101819.69;5086077;27;20036;-71
2022/08/08 02:27:41;;;;;;;3.92;2.90;;;;;;;16.22;60.06;101813.94;5083586;28;20482;-71
2022/08/08 02:30:11;;;;;;;8.48;3.00;;;;;;;16.12;60.48;101816.25;5086787;27;20499;-72
2022/08/08 02:32:59;;;;;;;6.78;3.08;;;;;;;16.17;60.79;101819.50;5091776;28;20494;-72
2022/08/08 02:35:53;;;;;;;7.70;3.33;;;;;;;16.21;60.08;101806.94;5078655;27;20075;-71
2022/08/08 02:39:04;;;;;;;8.23;3.20;;;;;;;16.15;60.19;101818.72;5094783;27;20063;-72
2022/08/08 02:41:51;;;;;;;4.53;2.80;;;;;;;16.18;59.83;101809.78;5086355;27;20216;-72
2022/08/08 02:44:46;;;;;;;6.78;2.80;;;;;;;16.26;59.96;101812.84;5075508;27;20067;-71
2022/08/08 02:47:48;;;;;;;4.78;2.72;;;;;;;15.89;61.51;101812.28;5046491;28;20036;-72
2022/08/08 02:50:57;;;;;;;7.30;3.40;;;;;;;15.92;60.98;101804.19;5075390;27;20474;-71
2022/08/08 02:53:42;;;;;;;4.75;3.00;;;;;;;16.03;60.98;101815.00;5053596;27;20492;-71
2022/08/08 02:56:55;;;;;;;5.40;2.95;;;;;;;16.07;60.76;101810.41;5083984;27;20048;-71
2022/08/08 03:00:07;;;;;;;5.15;2.63;;;;;;;16.07;60.23;101813.03;5084622;28;20101;-69
2022/08/08 03:03:25;;;;;;;4.93;2.80;;;;;;;16.11;60.84;101816.38;5088625;28;20535;-69
2022/08/08 03:06:24;;;;;;;7.03;3.10;;;;;;;16.10;60.80;101823.44;5079157;28;20044;-69
2022/08/08 03:09:30;;;;;;;4.35;3.42;;;;;;;16.18;60.36;101820.34;5064449;28;20074;-69
2022/08/08 03:12:29;;;;;;;6.18;3.10;;;;;;;16.06;60.84;101819.25;5098854;27;20069;-68
2022/08/08 03:15:12;;;;;;;5.22;3.10;;;;;;;16.10;60.41;101817.28;5100226;28;20067;-68
2022/08/08 03:17:45;;;;;;;8.90;3.63;;;;;;;16.10;60.85;101822.59;5085053;28;20113;-68
2022/08/08 03:20:12;;;;;;;4.35;3.47;;;;;;;16.08;60.38;101820.00;5084058;28;20097;-67
2022/08/08 03:22:45;;;;;;;7.43;3.42;;;;;;;16.16;59.53;101825.72;5084510;27;20097;-68
2022/08/08 03:25:14;;;;;;;9.10;3.60;;;;;;;15.91;60.52;101822.78;5077379;27;20449;-68
2022/08/08 03:27:45;;;;;;;5.75;3.63;;;;;;;15.87;60.35;101826.53;5086159;27;20105;-68
2022/08/08 03:30:13;;;;;;;7.28;3.40;;;;;;;15.87;59.64;101832.69;5083150;27;20090;-68
2022/08/08 03:35:26;;;;;;;5.68;3.17;;;;;;;15.77;59.94;101828.00;5085708;27;20050;-69
2022/08/08 03:37:54;;;;;;;10.45;3.80;;;;;;;15.63;60.18;101834.03;5086873;27;20094;-68
2022/08/08 03:40:22;;;;;;;7.53;3.17;;;;;;;15.58;60.67;101834.31;5076357;27;20112;-68
2022/08/08 03:42:49;;;;;;;16.35;3.15;;;;;;;15.58;60.34;101834.31;5099847;27;20043;-69
2022/08/08 03:45:17;;;;;;;9.98;3.42;;;;;;;15.48;60.55;101832.22;5090073;27;20056;-69
2022/08/08 03:47:44;;;;;;;6.10;3.10;;;;;;;15.47;60.53;101834.00;5083639;27;20484;-69
2022/08/08 03:50:18;;;;;;;10.00;3.72;;;;;;;15.48;60.25;101840.16;5083164;28;20538;-69
2022/08/08 03:52:45;;;;;;;6.35;3.30;;;;;;;15.28;60.88;101833.31;5083817;27;20462;-68
2022/08/08 03:55:14;;;;;;;7.53;3.17;;;;;;;14.95;61.34;101835.94;5085633;27;20048;-69
2022/08/08 03:57:45;;;;;;;5.53;3.65;;;;;;;14.78;62.38;101845.69;5070828;27;20582;-69
2022/08/08 04:00:13;;;;;;;7.00;3.47;;;;;;;14.71;62.84;101834.56;5062776;28;20419;-69
2022/08/08 04:02:42;;;;;;;11.10;4.25;;;;;;;14.71;62.92;101841.66;5071564;28;20039;-69
2022/08/08 04:05:10;;;;;;;5.60;3.58;;;;;;;14.71;62.79;101842.50;5085962;27;20098;-69
2022/08/08 04:07:37;;;;;;;6.40;3.60;;;;;;;14.82;62.36;101855.16;5084191;28;20048;-68
2022/08/08 04:10:05;;;;;;;6.25;3.30;;;;;;;14.83;62.85;101849.78;5083627;28;20630;-68
2022/08/08 04:12:32;;;;;;;8.57;3.60;;;;;;;14.97;62.16;101856.97;5085700;28;20044;-68
2022/08/08 04:14:59;;;;;;;7.00;4.30;;;;;;;14.93;62.63;101858.06;5083699;28;20048;-69
2022/08/08 04:17:25;;;;;;;6.63;3.58;;;;;;;14.93;62.47;101855.44;5082632;28;20044;-69
2022/08/08 04:19:51;;;;;;;11.70;3.90;;;;;;;14.88;62.48;101854.84;5084357;28;20097;-69
2022/08/08 04:22:18;;;;;;;5.38;3.35;;;;;;;14.99;62.66;101850.72;5089504;28;20048;-69
2022/08/08 04:24:44;;;;;;;5.13;3.45;;;;;;;14.97;63.34;101860.47;5085020;28;20048;-68
2022/08/08 04:27:11;;;;;;;8.70;4.15;;;;;;;15.11;63.14;101859.78;5084133;28;20040;-68
2022/08/08 04:29:39;;;;;;;6.90;3.65;;;;;;;15.18;63.21;101863.81;5083091;28;20048;-68
2022/08/08 04:32:05;;;;;;;7.75;4.15;;;;;;;15.10;63.88;101864.19;5085337;28;20106;-68
2022/08/08 04:34:32;;;;;;;5.65;3.90;;;;;;;15.01;64.66;101862.03;5084315;27;20036;-69
2022/08/08 04:36:58;;;;;;;10.00;4.43;;;;;;;15.08;63.94;101868.69;5082301;28;20465;-69
2022/08/08 04:39:25;;;;;;;6.80;4.15;;;;;;;15.25;63.86;101866.97;5083595;28;20044;-69
2022/08/08 04:41:52;;;;;;;6.53;3.80;;;;;;;15.25;63.73;101865.19;5084794;27;20052;-69
2022/08/08 04:44:18;;;;;;;7.75;4.10;;;;;;;15.35;62.87;101861.09;5083707;27;20052;-69
2022/08/08 04:46:46;;;;;;;9.82;4.43;;;;;;;15.24;63.59;101871.38;5084063;27;20036;-69
2022/08/08 04:49:12;;;;;;;7.30;4.00;;;;;;;15.22;63.30;101864.50;5083846;27;20488;-68
2022/08/08 04:51:38;;;;;;;6.15;4.28;;;;;;;15.39;62.93;101878.50;5082578;27;20499;-69
2022/08/08 04:54:05;;;;;;;5.75;3.97;;;;;;;15.59;62.33;101875.66;5084116;27;20048;-68
2022/08/08 04:56:31;;;;;;;5.30;3.97;;;;;;;15.75;61.93;101877.47;5085773;27;20040;-68
2022/08/08 04:58:58;;;;;;;5.88;3.70;;;;;;;15.81;61.11;101879.78;5082413;27;20052;-69
2022/08/08 05:01:24;;;;;;;6.53;3.60;;;;;;;16.09;60.35;101882.59;5084221;27;20047;-69
2022/08/08 05:03:52;;;;;;;7.00;3.72;;;;;;;16.31;59.61;101883.06;5077064;28;20043;-69
2022/08/08 05:06:18;;;;;;;6.57;4.10;;;;;;;16.50;58.90;101889.00;5083070;27;20056;-69
2022/08/08 05:08:46;;;;;;;5.53;3.47;;;;;;;16.58;58.24;101890.38;5083105;27;20075;-69
2022/08/08 05:11:13;;;;;;;4.45;3.53;;;;;;;16.87;57.25;101887.72;5084941;27;20113;-69
2022/08/08 05:13:40;;;;;;;6.30;3.50;;;;;;;17.05;56.99;101883.13;5082545;27;20127;-69
2022/08/08 05:16:07;;;;;;;7.93;3.90;;;;;;;17.09;57.30;101889.94;5084506;27;20040;-69
2022/08/08 05:18:35;;;;;;;6.25;3.50;;;;;;;17.09;57.50;101889.06;5083055;27;20040;-68
2022/08/08 05:21:04;;;;;;;7.22;3.92;;;;;;;17.37;56.71;101887.28;5081194;27;20133;-68
2022/08/08 05:23:30;;;;;;;4.82;3.33;;;;;;;17.68;56.07;101888.91;5083039;27;20070;-68
2022/08/08 05:25:58;;;;;;;7.15;3.47;;;;;;;18.04;55.53;101887.50;5084618;27;20117;-68
2022/08/08 05:28:25;;;;;;;7.15;3.40;;;;;;;17.93;55.57;101885.53;5083010;27;20054;-67
2022/08/08 05:30:51;;;;;;;4.65;3.30;;;;;;;18.33;53.91;101892.63;5083211;27;20128;-68
2022/08/08 05:33:18;;;;;;;9.32;3.42;;;;;;;18.48;54.19;101891.59;5083476;28;20048;-68
2022/08/08 05:35:46;;;;;;;7.55;3.30;;;;;;;18.82;52.63;101895.53;5082162;28;20047;-68
2022/08/08 05:38:15;;;;;;;5.57;3.45;;;;;;;19.04;51.92;101884.28;5086275;28;20093;-68
2022/08/08 05:40:46;;;;;;;5.07;3.20;;;;;;;19.35;51.78;101883.03;5086644;28;20074;-68
2022/08/08 05:43:16;;;;;;;11.30;3.30;;;;;;;19.87;50.42;101886.34;5072026;28;20056;-68
2022/08/08 05:45:44;;;;;;;7.13;3.33;;;;;;;19.90;49.97;101891.47;5066614;28;20056;-68
2022/08/08 05:48:12;;;;;;;4.47;2.75;;;;;;;20.45;48.47;101895.41;5065766;28;20095;-68
2022/08/08 05:50:39;;;;;;;6.07;3.10;;;;;;;20.61;47.81;101890.63;5067318;28;20078;-68
2022/08/08 05:53:06;;;;;;;4.88;3.40;;;;;;;20.30;48.53;101893.88;5072649;28;20519;-67
2022/08/08 05:55:35;;;;;;;5.70;3.05;;;;;;;20.70;47.34;101897.06;5090234;27;20611;-67
2022/08/08 05:58:03;;;;;;;5.88;2.75;;;;;;;20.58;48.06;101898.00;5093645;28;20044;-67
2022/08/08 06:00:32;;;;;;;4.28;2.90;;;;;;;21.15;46.94;101900.72;5102048;27;20051;-67
2022/08/08 06:03:13;;;;;;;3.83;2.72;;;;;;;21.31;46.70;101895.91;5095428;28;20070;-68
2022/08/08 06:05:45;;;;;;;5.25;3.25;;;;;;;21.71;45.91;101893.59;5081578;27;20123;-68
2022/08/08 06:08:13;;;;;;;5.72;3.00;;;;;;;22.33;43.43;101893.81;5097713;27;20040;-67
2022/08/08 06:10:42;;;;;;;6.05;2.85;;;;;;;22.65;43.07;101894.66;5095984;27;20044;-67
2022/08/08 06:13:08;;;;;;;3.95;2.95;;;;;;;23.21;42.31;101905.03;5100050;27;20047;-67
2022/08/08 06:15:36;;;;;;;4.90;2.95;;;;;;;23.32;41.80;101904.16;5084515;27;20550;-67
2022/08/08 06:18:04;;;;;;;3.83;2.80;;;;;;;23.68;40.54;101900.94;5087449;27;20586;-68
2022/08/08 06:20:30;;;;;;;6.57;3.28;;;;;;;23.87;40.55;101895.66;5085437;27;20069;-67
2022/08/08 06:22:57;;;;;;;4.22;2.80;;;;;;;23.87;40.35;101905.50;5082757;27;20453;-67
2022/08/08 06:25:23;;;;;;;7.78;3.20;;;;;;;24.08;39.80;101901.75;5085963;27;20044;-67
2022/08/08 06:27:54;;;;;;;4.55;2.88;;;;;;;23.99;40.72;101907.91;5087146;27;20477;-68
2022/08/08 06:30:20;;;;;;;8.57;3.20;;;;;;;24.00;41.60;101904.28;5082830;28;20044;-67
2022/08/08 06:32:50;;;;;;;4.65;2.72;;;;;;;23.53;41.54;101911.19;5084862;27;20109;-67
2022/08/08 06:35:17;;;;;;;4.28;2.40;;;;;;;24.22;41.04;101914.78;5086456;28;20496;-67
2022/08/08 06:37:46;;;;;;;4.15;3.13;;;;;;;24.44;39.93;101918.16;5084941;28;20085;-67
2022/08/08 06:40:14;;;;;;;6.50;3.10;;;;;;;24.64;40.78;101918.06;5085326;27;20105;-67
2022/08/08 06:42:46;;;;;;;4.63;3.03;;;;;;;24.65;40.20;101918.88;5086453;28;20055;-68
2022/08/08 06:45:14;;;;;;;4.68;2.75;;;;;;;25.22;39.28;101925.19;5077983;28;20045;-68
2022/08/08 06:47:41;;;;;;;5.28;2.55;;;;;;;25.83;38.29;101910.25;5069856;28;20045;-67
2022/08/08 06:50:09;;;;;;;7.95;3.03;;;;;;;25.22;38.03;101917.13;5080704;27;20093;-68
2022/08/08 06:52:36;;;;;;;4.80;2.63;;;;;;;25.76;37.25;101911.03;5086155;27;20059;-68
2022/08/08 06:55:05;;;;;;;7.93;2.85;;;;;;;26.12;37.63;101913.63;5085115;27;20088;-67
2022/08/08 06:57:32;;;;;;;5.57;2.90;;;;;;;26.50;37.15;101912.50;5082314;28;20048;-68
2022/08/08 06:59:58;;;;;;;4.68;2.90;;;;;;;26.75;36.51;101916.28;5085558;27;20093;-67
2022/08/08 07:02:27;;;;;;;8.10;2.90;;;;;;;27.22;35.58;101908.72;5085203;27;20101;-68
2022/08/08 07:04:55;;;;;;;7.07;3.00;;;;;;;27.48;34.62;101916.81;5082938;27;20074;-67
2022/08/08 07:07:33;;;;;;;4.45;2.92;;;;;;;27.14;35.81;101915.91;5086354;28;20039;-68
2022/08/08 07:10:05;;;;;;;6.43;2.80;;;;;;;27.34;35.46;101915.56;5086255;28;20449;-67
2022/08/08 07:12:39;;;;;;;4.70;2.53;;;;;;;27.30;34.18;101924.09;5076220;27;20389;-67
2022/08/08 07:15:08;;;;;;;4.93;2.83;;;;;;;27.71;33.63;101923.34;5080009;27;20044;-67
2022/08/08 07:17:42;;;;;;;7.03;2.80;;;;;;;27.86;34.69;101913.59;5081948;27;20048;-67
2022/08/08 07:20:10;;;;;;;4.40;2.60;;;;;;;27.83;34.23;101918.47;5085451;27;20044;-69
2022/08/08 07:22:43;;;;;;;11.20;2.95;;;;;;;27.87;35.50;101928.78;5089178;27;20056;-69
2022/08/08 07:25:10;;;;;;;8.88;3.08;;;;;;;28.17;35.24;101921.13;5085538;27;20102;-69
2022/08/08 07:27:41;;;;;;;4.47;2.55;;;;;;;28.11;34.32;101927.19;5085734;27;20052;-68
2022/08/08 07:30:09;;;;;;;6.23;2.77;;;;;;;28.35;32.93;101927.25;5082466;27;20673;-68
2022/08/08 07:32:38;;;;;;;4.70;2.60;;;;;;;28.67;32.12;101926.44;5084453;27;20293;-69
2022/08/08 07:35:05;;;;;;;6.63;2.65;;;;;;;29.02;31.91;101929.66;5080037;27;20102;-69
2022/08/08 07:37:34;;;;;;;4.22;2.45;;;;;;;29.21;32.07;101927.59;5084682;27;20049;-69
2022/08/08 07:40:01;;;;;;;4.78;2.35;;;;;;;29.00;30.86;101931.69;5072198;28;20048;-66
2022/08/08 07:42:29;;;;;;;6.05;2.30;;;;;;;29.43;32.23;101935.00;5064607;28;20044;-66
2022/08/08 07:44:56;;;;;;;9.75;2.50;;;;;;;29.35;31.05;101940.44;5063666;28;20036;-66
2022/08/08 07:47:22;;;;;;;4.18;2.53;;;;;;;29.56;30.12;101932.63;5063834;28;20106;-66
2022/08/08 07:49:50;;;;;;;4.30;2.53;;;;;;;29.76;29.88;101933.88;5064459;28;20041;-66
2022/08/08 07:52:17;;;;;;;6.95;2.35;;;;;;;30.09;29.61;101931.03;5065066;28;20044;-66
2022/08/08 07:54:51;;;;;;;5.07;2.05;;;;;;;30.30;30.24;101936.69;5082965;28;20036;-66
2022/08/08 07:57:27;;;;;;;3.85;2.20;;;;;;;30.64;29.75;101936.25;5043849;28;20041;-66
2022/08/08 08:00:00;;;;;;;4.00;2.17;;;;;;;30.45;28.89;101945.72;5055206;28;20484;-66
2022/08/08 08:02:38;;;;;;;4.10;2.40;;;;;;;30.70;29.10;101946.38;5067621;28;20044;-66
2022/08/08 08:05:12;;;;;;;4.40;2.45;;;;;;;31.11;27.50;101936.06;5074790;28;20067;-66
2022/08/08 08:07:41;;;;;;;4.45;2.15;;;;;;;31.06;29.89;101954.72;5090462;28;20492;-66
2022/08/08 08:10:11;;;;;;;7.70;2.78;;;;;;;31.49;28.05;101939.53;5091858;27;20558;-66
2022/08/08 08:12:38;;;;;;;5.13;2.45;;;;;;;31.60;28.19;101948.06;5090571;27;20077;-66
2022/08/08 08:15:06;;;;;;;3.00;2.10;;;;;;;31.69;27.41;101946.13;5095827;27;20487;-66
2022/08/08 08:17:39;;;;;;;4.05;2.25;;;;;;;31.46;28.48;101940.75;5104747;27;20053;-66
2022/08/08 08:20:10;;;;;;;6.88;2.20;;;;;;;31.67;27.72;101932.72;5090214;27;20071;-66
2022/08/08 08:22:36;;;;;;;7.05;2.30;;;;;;;31.71;27.34;101925.91;5082428;28;20056;-67
2022/08/08 08:25:03;;;;;;;7.18;2.45;;;;;;;32.26;25.66;101924.50;5068564;27;20450;-66
2022/08/08 08:27:30;;;;;;;3.30;1.85;;;;;;;32.24;26.97;101932.00;5100925;27;20102;-68
2022/08/08 08:29:56;;;;;;;10.00;2.33;;;;;;;32.63;26.35;101932.41;5082744;27;20048;-67
2022/08/08 08:32:22;;;;;;;5.97;1.92;;;;;;;32.65;25.37;101933.06;5086965;27;20040;-66
2022/08/08 08:34:51;;;;;;;3.25;1.75;;;;;;;33.05;23.36;101930.66;5083517;27;20040;-69
2022/08/08 08:37:18;;;;;;;4.72;1.80;;;;;;;32.71;23.46;101935.00;5083265;27;20548;-70
2022/08/08 08:39:45;;;;;;;3.95;1.70;;;;;;;32.54;26.42;101930.84;5084333;28;20179;-69
2022/08/08 08:42:12;;;;;;;2.85;1.83;;;;;;;32.98;24.25;101944.22;5085492;28;20408;-69
2022/08/08 08:44:39;;;;;;;2.38;1.30;;;;;;;33.23;22.55;101944.63;5083925;27;20578;-70
2022/08/08 08:47:06;;;;;;;3.78;1.48;;;;;;;32.96;21.43;101931.88;5086263;27;20834;-70
2022/08/08 08:49:33;;;;;;;3.95;1.30;;;;;;;32.33;23.36;101931.69;5085364;27;20048;-69
2022/08/08 08:52:01;;;;;;;4.07;1.70;;;;;;;31.33;23.51;101929.72;5085816;27;20143;-70
2022/08/08 08:54:33;;;;;;;4.00;1.80;;;;;;;32.02;24.63;101924.81;5086142;27;20044;-70
2022/08/08 08:57:02;;;;;;;3.42;1.70;;;;;;;32.20;24.76;101930.69;5086448;27;20097;-70
2022/08/08 08:59:34;;;;;;;3.20;1.88;;;;;;;31.78;24.54;101923.28;5083861;27;20036;-70
2022/08/08 09:02:02;;;;;;;4.20;1.70;;;;;;;32.95;23.00;101936.47;5088550;27;20092;-69
2022/08/08 09:04:34;;;;;;;4.82;1.80;;;;;;;33.03;20.60;101922.75;5089092;27;20088;-70
2022/08/08 09:07:02;;;;;;;3.55;1.60;;;;;;;33.21;22.07;101927.69;5073814;27;20048;-70
2022/08/08 09:09:34;;;;;;;3.13;1.35;;;;;;;33.29;20.77;101919.38;5084820;27;20532;-70
2022/08/08 09:12:01;;;;;;;2.58;1.42;;;;;;;33.08;21.21;101916.69;5088146;27;20093;-70
2022/08/08 09:14:28;;;;;;;1.73;1.23;;;;;;;33.23;22.77;101926.44;5088354;27;20098;-69
2022/08/08 09:16:55;;;;;;;3.20;1.50;;;;;;;33.61;20.92;101921.44;5088281;27;20239;-69
2022/08/08 09:19:21;;;;;;;3.65;1.55;;;;;;;33.77;20.30;101924.91;5093951;27;20043;-70
2022/08/08 09:21:50;;;;;;;3.63;1.30;;;;;;;33.53;22.42;101924.31;5087360;27;20040;-70
2022/08/08 09:24:17;;;;;;;2.90;1.45;;;;;;;32.69;22.91;101930.81;5088748;27;20044;-70
2022/08/08 09:26:49;;;;;;;3.05;1.45;;;;;;;32.34;22.18;101921.66;5087513;27;20105;-70
2022/08/08 09:29:21;;;;;;;4.45;1.55;;;;;;;33.01;22.20;101918.50;5087668;27;20040;-70
2022/08/08 09:31:54;;;;;;;5.60;1.42;;;;;;;33.60;21.55;101921.63;5086900;27;20040;-70
2022/08/08 09:34:24;;;;;;;2.30;1.55;;;;;;;33.75;20.95;101917.75;5088151;27;20531;-70
2022/08/08 09:36:55;;;;;;;6.78;1.50;;;;;;;33.79;21.86;101911.91;5089177;28;20036;-70
2022/08/08 09:39:28;;;;;;;5.32;1.48;;;;;;;33.57;20.41;101913.88;5086999;28;20052;-70
2022/08/08 09:42:02;;;;;;;4.80;1.90;;;;;;;33.65;20.71;101911.88;5088044;28;20044;-70
2022/08/08 09:44:35;;;;;;;3.90;1.70;;;;;;;34.07;22.47;101907.22;5087112;28;20495;-70
2022/08/08 09:47:06;;;;;;;3.30;1.48;;;;;;;34.17;20.57;101903.06;5088558;28;20044;-70
2022/08/08 09:49:34;;;;;;;;;;;;;;;34.10;22.02;101901.34;5080123;28;20067;-69
2022/08/08 09:52:02;;;;;;;4.93;1.48;;;;;;;32.96;21.42;101907.41;5067412;28;19920;-69
2022/08/08 09:54:35;;;;;;;4.65;1.58;;;;;;;33.03;21.28;101900.16;5067374;28;20048;-70
2022/08/08 09:57:08;;;;;;;2.97;1.33;;;;;;;33.42;22.58;101905.00;5080952;28;20454;-69
2022/08/08 09:59:39;;;;;;;4.15;1.25;;;;;;;33.11;21.46;101905.44;5074171;28;20040;-69
2022/08/08 10:02:06;;;;;;;5.43;1.52;;;;;;;33.27;20.95;101905.97;5086398;27;20044;-69
2022/08/08 10:04:34;;;;;;;7.82;1.50;;;;;;;33.53;22.41;101905.28;5086155;27;20066;-70
2022/08/08 10:07:02;;;;;;;2.30;1.25;;;;;;;34.09;20.85;101896.94;5086392;28;20044;-70
2022/08/08 10:09:30;;;;;;;2.85;1.40;;;;;;;33.44;19.84;101895.63;5100475;27;20063;-70
2022/08/08 10:11:57;;;;;;;4.55;1.63;;;;;;;33.38;21.44;101904.56;5103274;27;20042;-70
2022/08/08 10:14:33;;;;;;;5.43;1.35;;;;;;;34.12;22.91;101894.66;5085865;28;20070;-70
2022/08/08 10:16:59;;;;;;;4.57;1.70;;;;;;;33.63;20.74;101892.19;5085225;28;20040;-70
2022/08/08 10:19:35;;;;;;;2.40;1.50;;;;;;;33.97;19.01;101891.25;5086673;28;20104;-70
2022/08/08 10:22:02;;;;;;;2.17;1.42;;;;;;;34.28;20.47;101893.47;5071952;28;20052;-70
2022/08/08 10:24:29;;;;;;;3.13;1.40;;;;;;;34.35;20.92;101893.47;5069310;27;20075;-70
2022/08/08 10:27:00;;;;;;;2.92;1.15;;;;;;;33.75;20.06;101901.44;5105277;27;20575;-70
2022/08/08 10:29:39;;;;;;;5.38;1.42;;;;;;;33.85;22.00;101897.50;5106147;27;20043;-70
2022/08/08 10:34:57;;;;;;;4.80;1.40;;;;;;;33.40;22.60;101899.78;5061564;28;20044;-70
2022/08/08 10:37:26;;;;;;;5.10;1.50;;;;;;;32.32;21.94;101893.88;5084885;27;20050;-69
2022/08/08 10:39:54;;;;;;;2.50;1.40;;;;;;;32.74;20.18;101888.44;5085100;27;20051;-70
2022/08/08 10:42:23;;;;;;;6.20;1.60;;;;;;;32.85;19.72;101894.38;5093263;27;20096;-69
2022/08/08 10:45:00;;;;;;;2.20;1.52;;;;;;;33.27;21.24;101888.81;5106661;27;20351;-66
2022/08/08 10:47:26;;;;;;;1.50;1.20;;;;;;;33.31;19.38;101884.66;5105399;27;20047;-66
2022/08/08 10:49:55;;;;;;;2.30;1.45;;;;;;;33.22;23.04;101883.16;5106421;27;20092;-65
2022/08/08 10:52:29;;;;;;;4.13;1.50;;;;;;;33.39;21.85;101887.22;5106823;27;20051;-65
2022/08/08 10:54:56;;;;;;;4.22;1.50;;;;;;;33.62;21.17;101876.88;5106464;27;20036;-66
2022/08/08 10:57:23;;;;;;;3.70;1.52;;;;;;;32.53;21.64;101876.72;5104888;27;20673;-65
2022/08/08 10:59:55;;;;;;;3.15;1.63;;;;;;;33.45;20.23;101880.97;5078690;27;20411;-66
2022/08/08 11:02:27;;;;;;;1.80;1.30;;;;;;;32.20;21.61;101881.84;5083807;27;20773;-65
2022/08/08 11:04:53;;;;;;;1.92;1.30;;;;;;;31.90;22.47;101877.50;5077096;28;20040;-65
2022/08/08 11:07:27;;;;;;;3.05;1.30;;;;;;;32.28;21.64;101874.44;5085154;28;20109;-65
2022/08/08 11:09:54;;;;;;;3.38;1.40;;;;;;;33.49;23.07;101884.13;5086799;28;20044;-66
2022/08/08 11:12:20;;;;;;;5.50;1.40;;;;;;;33.52;19.87;101886.47;5085090;28;20074;-66
2022/08/08 11:14:52;;;;;;;3.67;1.58;;;;;;;33.72;21.35;101884.69;5087412;27;20420;-66
2022/08/08 11:17:25;;;;;;;3.03;1.40;;;;;;;34.06;21.82;101870.13;5103418;27;20093;-66
2022/08/08 11:19:52;;;;;;;3.17;1.40;;;;;;;34.67;21.13;101869.00;5105323;27;20047;-65
2022/08/08 11:22:23;;;;;;;5.22;1.33;;;;;;;35.19;20.73;101864.53;5096594;27;20098;-66
2022/08/08 11:24:50;;;;;;;3.53;1.58;;;;;;;35.47;21.38;101873.28;5085566;27;20040;-65
2022/08/08 11:27:18;;;;;;;3.38;1.70;;;;;;;35.58;20.55;101869.88;5085364;27;20044;-65
2022/08/08 11:29:47;;;;;;;2.35;1.25;;;;;;;35.52;20.21;101873.44;5076709;27;20113;-65
2022/08/08 11:32:14;;;;;;;3.35;1.60;;;;;;;35.77;19.71;101867.28;5085279;27;20518;-65
2022/08/08 11:34:45;;;;;;;3.42;1.50;;;;;;;35.26;20.03;101859.06;5083177;28;20048;-65
2022/08/08 11:37:12;;;;;;;3.80;1.30;;;;;;;34.67;20.73;101860.81;5086375;27;20097;-65
2022/08/08 11:39:39;;;;;;;3.70;1.48;;;;;;;34.40;20.01;101863.72;5085064;27;20044;-65
2022/08/08 11:42:07;;;;;;;4.68;1.50;;;;;;;33.94;20.25;101858.16;5096912;27;20043;-65
2022/08/08 11:44:34;;;;;;;4.13;1.73;;;;;;;33.45;21.13;101853.78;5106493;27;20486;-65
2022/08/08 11:47:00;;;;;;;4.32;1.50;;;;;;;33.32;23.88;101864.59;5105412;27;20175;-65
2022/08/08 11:49:27;;;;;;;3.33;1.63;;;;;;;33.89;22.25;101860.69;5104004;27;20092;-65
2022/08/08 11:51:55;;;;;;;3.20;1.52;;;;;;;34.22;21.20;101865.16;5107366;27;20096;-66
2022/08/08 11:54:32;;;;;;;3.25;1.50;;;;;;;33.71;20.68;101858.53;5104823;27;20456;-66
2022/08/08 11:57:08;;;;;;;3.42;1.52;;;;;;;34.04;21.46;101854.00;5099779;27;20047;-66